sensor_id;sensor_type;location;lat;lon;timestamp;pressure;altitude;pressure_sealevel;temperature;humidity
6668;BME280;3370;47.712;9.082;2023-05-02T00:02:14;97211.25;;;9.02;100.00
6668;BME280;3370;47.712;9.082;2023-05-02T00:04:39;97211.31;;;9.01;100.00
6668;BME280;3370;47.712;9.082;2023-05-02T00:07:05;97207.84;;;9.02;100.00
6668;BME280;3370;47.712;9.082;2023-05-02T00:09:31;97202.81;;;8.99;100.00
6668;BME280;3370;47.712;9.082;2023-05-02T00:11:57;97208.91;;;8.96;100.00
6668;BME280;3370;47.712;9.082;2023-05-02T00:14:24;97205.47;;;8.97;100.00
6668;BME280;3370;47.712;9.082;2023-05-02T00:16:50;97202.94;;;8.96;100.00
6668;BME280;3370;47.712;9.082;2023-05-02T00:19:15;97205.47;;;8.97;100.00
6668;BME280;3370;47.712;9.082;2023-05-02T00:21:41;97196.97;;;8.95;100.00
6668;BME280;3370;47.712;9.082;2023-05-02T00:24:07;97200.44;;;8.94;100.00
6668;BME280;3370;47.712;9.082;2023-05-02T00:26:33;97202.09;;;8.95;100.00
6668;BME280;3370;47.712;9.082;2023-05-02T00:28:58;97192.56;;;8.99;100.00
6668;BME280;3370;47.712;9.082;2023-05-02T00:31:25;97196.97;;;8.95;100.00
6668;BME280;3370;47.712;9.082;2023-05-02T00:33:51;97195.50;;;8.88;100.00
6668;BME280;3370;47.712;9.082;2023-05-02T00:36:18;97198.16;;;8.87;100.00
6668;BME280;3370;47.712;9.082;2023-05-02T00:38:44;97193.94;;;8.84;100.00
6668;BME280;3370;47.712;9.082;2023-05-02T00:41:10;97193.03;;;8.87;100.00
6668;BME280;3370;47.712;9.082;2023-05-02T00:43:37;97193.63;;;8.93;100.00
6668;BME280;3370;47.712;9.082;2023-05-02T00:46:05;97199.19;;;8.81;100.00
6668;BME280;3370;47.712;9.082;2023-05-02T00:48:32;97198.63;;;8.73;100.00
6668;BME280;3370;47.712;9.082;2023-05-02T00:51:03;97204.78;;;8.69;100.00
6668;BME280;3370;47.712;9.082;2023-05-02T00:53:31;97194.50;;;8.69;100.00
6668;BME280;3370;47.712;9.082;2023-05-02T00:56:01;97205.44;;;8.74;100.00
6668;BME280;3370;47.712;9.082;2023-05-02T00:58:27;97199.75;;;8.66;100.00
6668;BME280;3370;47.712;9.082;2023-05-02T01:11:52;97196.91;;;8.48;100.00
6668;BME280;3370;47.712;9.082;2023-05-02T01:14:23;97202.25;;;8.42;100.00
6668;BME280;3370;47.712;9.082;2023-05-02T01:16:50;97199.75;;;8.39;100.00
6668;BME280;3370;47.712;9.082;2023-05-02T01:19:35;97196.41;;;8.37;100.00
6668;BME280;3370;47.712;9.082;2023-05-02T01:22:06;97199.88;;;8.36;100.00
6668;BME280;3370;47.712;9.082;2023-05-02T01:30:27;97202.25;;;8.42;100.00
6668;BME280;3370;47.712;9.082;2023-05-02T01:32:56;97205.00;;;8.36;100.00
6668;BME280;3370;47.712;9.082;2023-05-02T01:35:24;97200.06;;;8.30;100.00
6668;BME280;3370;47.712;9.082;2023-05-02T01:37:51;97205.88;;;8.35;100.00
6668;BME280;3370;47.712;9.082;2023-05-02T01:40:19;97204.88;;;8.39;100.00
6668;BME280;3370;47.712;9.082;2023-05-02T01:42:49;97211.75;;;8.38;100.00
6668;BME280;3370;47.712;9.082;2023-05-02T01:45:16;97211.47;;;8.48;100.00
6668;BME280;3370;47.712;9.082;2023-05-02T01:47:44;97214.75;;;8.51;100.00
6668;BME280;3370;47.712;9.082;2023-05-02T01:50:18;97219.78;;;8.54;100.00
6668;BME280;3370;47.712;9.082;2023-05-02T01:52:47;97218.09;;;8.53;100.00
6668;BME280;3370;47.712;9.082;2023-05-02T01:55:15;97222.63;;;8.47;100.00
6668;BME280;3370;47.712;9.082;2023-05-02T01:57:45;97220.75;;;8.50;100.00
6668;BME280;3370;47.712;9.082;2023-05-02T02:00:12;97222.44;;;8.51;100.00
6668;BME280;3370;47.712;9.082;2023-05-02T02:02:40;97223.28;;;8.52;100.00
6668;BME280;3370;47.712;9.082;2023-05-02T02:05:08;97230.00;;;8.56;100.00
6668;BME280;3370;47.712;9.082;2023-05-02T02:07:35;97220.47;;;8.59;100.00
6668;BME280;3370;47.712;9.082;2023-05-02T02:10:01;97223.22;;;8.53;100.00
6668;BME280;3370;47.712;9.082;2023-05-02T02:12:42;97224.88;;;8.56;100.00
6668;BME280;3370;47.712;9.082;2023-05-02T02:15:20;97229.13;;;8.55;100.00
6668;BME280;3370;47.712;9.082;2023-05-02T02:18:20;97233.38;;;8.56;100.00
6668;BME280;3370;47.712;9.082;2023-05-02T02:20:46;97235.94;;;8.56;100.00
6668;BME280;3370;47.712;9.082;2023-05-02T02:23:14;97236.03;;;8.53;100.00
6668;BME280;3370;47.712;9.082;2023-05-02T02:25:41;97232.38;;;8.60;100.00
6668;BME280;3370;47.712;9.082;2023-05-02T02:28:08;97240.06;;;8.60;100.00
6668;BME280;3370;47.712;9.082;2023-05-02T02:30:34;97242.53;;;8.63;100.00
6668;BME280;3370;47.712;9.082;2023-05-02T02:33:00;97246.94;;;8.60;100.00
6668;BME280;3370;47.712;9.082;2023-05-02T02:35:32;97246.03;;;8.61;100.00
6668;BME280;3370;47.712;9.082;2023-05-02T02:41:26;97247.81;;;8.59;100.00
6668;BME280;3370;47.712;9.082;2023-05-02T02:44:25;97249.63;;;8.55;100.00
6668;BME280;3370;47.712;9.082;2023-05-02T02:47:08;97246.97;;;8.58;100.00
6668;BME280;3370;47.712;9.082;2023-05-02T02:49:54;97247.97;;;8.54;100.00
6668;BME280;3370;47.712;9.082;2023-05-02T02:52:45;97251.31;;;8.56;100.00
6668;BME280;3370;47.712;9.082;2023-05-02T03:01:09;97252.78;;;8.63;100.00
6668;BME280;3370;47.712;9.082;2023-05-02T03:03:38;97253.78;;;8.59;100.00
6668;BME280;3370;47.712;9.082;2023-05-02T03:06:06;97250.31;;;8.60;100.00
6668;BME280;3370;47.712;9.082;2023-05-02T03:08:50;97256.13;;;8.66;100.00
6668;BME280;3370;47.712;9.082;2023-05-02T03:11:16;97257.97;;;8.62;100.00
6668;BME280;3370;47.712;9.082;2023-05-02T03:13:41;97258.09;;;8.57;100.00
6668;BME280;3370;47.712;9.082;2023-05-02T03:16:53;97260.66;;;8.57;100.00
6668;BME280;3370;47.712;9.082;2023-05-02T03:19:12;97262.44;;;8.55;100.00
6668;BME280;3370;47.712;9.082;2023-05-02T03:21:38;97259.00;;;8.56;100.00
6668;BME280;3370;47.712;9.082;2023-05-02T03:24:04;97259.78;;;8.58;100.00
6668;BME280;3370;47.712;9.082;2023-05-02T03:26:30;97254.56;;;8.61;100.00
6668;BME280;3370;47.712;9.082;2023-05-02T03:28:56;97256.34;;;8.59;100.00
6668;BME280;3370;47.712;9.082;2023-05-02T03:31:22;97256.22;;;8.62;100.00
6668;BME280;3370;47.712;9.082;2023-05-02T03:33:48;97259.75;;;8.60;100.00
6668;BME280;3370;47.712;9.082;2023-05-02T03:36:14;97257.28;;;8.57;100.00
6668;BME280;3370;47.712;9.082;2023-05-02T03:38:41;97264.13;;;8.56;100.00
6668;BME280;3370;47.712;9.082;2023-05-02T03:41:06;97258.09;;;8.57;100.00
6668;BME280;3370;47.712;9.082;2023-05-02T03:43:32;97256.34;;;8.59;100.00
6668;BME280;3370;47.712;9.082;2023-05-02T03:46:07;97266.59;;;8.59;100.00
6668;BME280;3370;47.712;9.082;2023-05-02T03:48:34;97266.47;;;8.62;100.00
6668;BME280;3370;47.712;9.082;2023-05-02T03:51:02;97262.22;;;8.63;100.00
6668;BME280;3370;47.712;9.082;2023-05-02T03:53:29;97266.47;;;8.62;100.00
6668;BME280;3370;47.712;9.082;2023-05-02T03:55:56;97261.47;;;8.59;100.00
6668;BME280;3370;47.712;9.082;2023-05-02T03:58:22;97266.53;;;8.61;100.00
6668;BME280;3370;47.712;9.082;2023-05-02T04:00:48;97281.84;;;8.62;100.00
6668;BME280;3370;47.712;9.082;2023-05-02T04:03:13;97281.78;;;8.66;100.00
6668;BME280;3370;47.712;9.082;2023-05-02T04:05:39;97282.66;;;8.64;100.00
6668;BME280;3370;47.712;9.082;2023-05-02T04:08:05;97278.31;;;8.67;100.00
6668;BME280;3370;47.712;9.082;2023-05-02T04:10:31;97287.69;;;8.68;100.00
6668;BME280;3370;47.712;9.082;2023-05-02T04:12:56;97283.47;;;8.67;100.00
6668;BME280;3370;47.712;9.082;2023-05-02T04:15:22;97280.91;;;8.67;100.00
6668;BME280;3370;47.712;9.082;2023-05-02T04:17:48;97287.69;;;8.68;100.00
6668;BME280;3370;47.712;9.082;2023-05-02T04:20:14;97295.28;;;8.71;100.00
6668;BME280;3370;47.712;9.082;2023-05-02T04:22:40;97301.97;;;8.75;100.00
6668;BME280;3370;47.712;9.082;2023-05-02T04:25:06;97304.56;;;8.73;100.00
6668;BME280;3370;47.712;9.082;2023-05-02T04:27:32;97306.25;;;8.74;100.00
6668;BME280;3370;47.712;9.082;2023-05-02T04:29:58;97320.81;;;8.74;100.00
6668;BME280;3370;47.712;9.082;2023-05-02T04:32:24;97315.56;;;8.77;100.00
6668;BME280;3370;47.712;9.082;2023-05-02T04:34:49;97313.78;;;8.79;100.00
6668;BME280;3370;47.712;9.082;2023-05-02T04:37:15;97310.34;;;8.80;100.00
6668;BME280;3370;47.712;9.082;2023-05-02T04:39:41;97313.78;;;8.79;100.00
6668;BME280;3370;47.712;9.082;2023-05-02T04:42:07;97315.56;;;8.77;100.00
6668;BME280;3370;47.712;9.082;2023-05-02T04:44:33;97311.22;;;8.79;100.00
6668;BME280;3370;47.712;9.082;2023-05-02T04:46:58;97316.34;;;8.79;100.00
6668;BME280;3370;47.712;9.082;2023-05-02T04:49:24;97320.59;;;8.80;100.00
6668;BME280;3370;47.712;9.082;2023-05-02T04:51:50;97325.00;;;8.76;100.00
6668;BME280;3370;47.712;9.082;2023-05-02T04:54:17;97333.50;;;8.77;100.00
6668;BME280;3370;47.712;9.082;2023-05-02T04:56:43;97336.91;;;8.77;100.00
6668;BME280;3370;47.712;9.082;2023-05-02T04:59:09;97337.13;;;8.71;100.00
6668;BME280;3370;47.712;9.082;2023-05-02T05:01:35;97341.59;;;8.64;100.00
6668;BME280;3370;47.712;9.082;2023-05-02T05:04:00;97346.72;;;8.64;100.00
6668;BME280;3370;47.712;9.082;2023-05-02T05:06:26;97351.84;;;8.64;100.00
6668;BME280;3370;47.712;9.082;2023-05-02T05:08:52;97352.75;;;8.63;100.00
6668;BME280;3370;47.712;9.082;2023-05-02T05:11:18;97358.72;;;8.64;100.00
6668;BME280;3370;47.712;9.082;2023-05-02T05:13:43;97357.72;;;8.68;100.00
6668;BME280;3370;47.712;9.082;2023-05-02T05:16:09;97356.91;;;8.68;100.00
6668;BME280;3370;47.712;9.082;2023-05-02T05:18:35;97364.63;;;8.66;100.00
6668;BME280;3370;47.712;9.082;2023-05-02T05:21:08;97369.66;;;8.69;100.00
6668;BME280;3370;47.712;9.082;2023-05-02T05:23:36;97368.63;;;8.75;100.00
6668;BME280;3370;47.712;9.082;2023-05-02T05:26:13;97373.84;;;8.72;100.00
6668;BME280;3370;47.712;9.082;2023-05-02T05:28:43;97383.13;;;8.76;100.00
6668;BME280;3370;47.712;9.082;2023-05-02T05:31:11;97383.00;;;8.79;100.00
6668;BME280;3370;47.712;9.082;2023-05-02T05:33:38;97389.00;;;8.79;100.00
6668;BME280;3370;47.712;9.082;2023-05-02T05:36:14;97393.97;;;8.84;100.00
6668;BME280;3370;47.712;9.082;2023-05-02T05:38:40;97393.03;;;8.87;100.00
6668;BME280;3370;47.712;9.082;2023-05-02T05:41:06;97393.91;;;8.86;100.00
6668;BME280;3370;47.712;9.082;2023-05-02T05:43:35;97399.78;;;8.89;100.00
6668;BME280;3370;47.712;9.082;2023-05-02T05:46:01;97402.22;;;8.94;100.00
6668;BME280;3370;47.712;9.082;2023-05-02T05:48:27;97404.53;;;9.01;100.00
6668;BME280;3370;47.712;9.082;2023-05-02T05:50:53;97405.09;;;9.10;100.00
6668;BME280;3370;47.712;9.082;2023-05-02T05:53:19;97405.00;;;9.13;100.00
6668;BME280;3370;47.712;9.082;2023-05-02T05:55:45;97403.22;;;9.15;100.00
6668;BME280;3370;47.712;9.082;2023-05-02T05:58:11;97394.00;;;9.34;100.00
6668;BME280;3370;47.712;9.082;2023-05-02T06:00:38;97406.06;;;9.32;100.00
6668;BME280;3370;47.712;9.082;2023-05-02T06:03:05;97397.44;;;9.33;100.00
6668;BME280;3370;47.712;9.082;2023-05-02T06:05:31;97399.22;;;9.31;100.00
6668;BME280;3370;47.712;9.082;2023-05-02T06:07:58;97394.09;;;9.31;100.00
6668;BME280;3370;47.712;9.082;2023-05-02T06:10:24;97396.53;;;9.36;100.00
6668;BME280;3370;47.712;9.082;2023-05-02T06:12:50;97402.03;;;9.25;100.00
6668;BME280;3370;47.712;9.082;2023-05-02T06:15:16;97407.78;;;9.32;100.00
6668;BME280;3370;47.712;9.082;2023-05-02T06:17:41;97416.72;;;9.20;100.00
6668;BME280;3370;47.712;9.082;2023-05-02T06:20:08;97411.69;;;9.17;100.00
6668;BME280;3370;47.712;9.082;2023-05-02T06:22:34;97421.03;;;9.19;100.00
6668;BME280;3370;47.712;9.082;2023-05-02T06:25:00;97430.44;;;9.19;100.00
6668;BME280;3370;47.712;9.082;2023-05-02T06:27:26;97424.53;;;9.17;100.00
6668;BME280;3370;47.712;9.082;2023-05-02T06:29:52;97423.56;;;9.21;100.00
6668;BME280;3370;47.712;9.082;2023-05-02T06:32:18;97433.06;;;9.17;100.00
6668;BME280;3370;47.712;9.082;2023-05-02T06:34:44;97439.03;;;9.18;100.00
6668;BME280;3370;47.712;9.082;2023-05-02T06:37:10;97440.56;;;9.24;100.00
6668;BME280;3370;47.712;9.082;2023-05-02T06:39:36;97439.81;;;9.20;100.00
6668;BME280;3370;47.712;9.082;2023-05-02T06:42:02;97435.47;;;9.22;100.00
6668;BME280;3370;47.712;9.082;2023-05-02T06:44:28;97441.38;;;9.24;100.00
6668;BME280;3370;47.712;9.082;2023-05-02T06:46:55;97440.94;;;9.38;100.00
6668;BME280;3370;47.712;9.082;2023-05-02T06:49:21;97436.44;;;9.45;100.00
6668;BME280;3370;47.712;9.082;2023-05-02T06:51:47;97438.09;;;9.46;100.00
6668;BME280;3370;47.712;9.082;2023-05-02T06:54:13;97435.13;;;9.58;100.00
6668;BME280;3370;47.712;9.082;2023-05-02T06:56:41;97440.50;;;9.75;100.00
6668;BME280;3370;47.712;9.082;2023-05-02T06:59:06;97434.88;;;9.64;100.00
6668;BME280;3370;47.712;9.082;2023-05-02T07:01:32;97437.13;;;9.73;100.00
6668;BME280;3370;47.712;9.082;2023-05-02T07:04:00;97438.72;;;9.52;100.00
6668;BME280;3370;47.712;9.082;2023-05-02T07:06:26;97436.31;;;9.48;100.00
6668;BME280;3370;47.712;9.082;2023-05-02T07:08:52;97447.34;;;9.50;100.00
6668;BME280;3370;47.712;9.082;2023-05-02T07:11:18;97447.31;;;9.76;100.00
6668;BME280;3370;47.712;9.082;2023-05-02T07:13:43;97454.84;;;9.81;100.00
6668;BME280;3370;47.712;9.082;2023-05-02T07:16:10;97452.44;;;9.76;100.00
6668;BME280;3370;47.712;9.082;2023-05-02T07:18:36;97450.16;;;9.69;100.00
6668;BME280;3370;47.712;9.082;2023-05-02T07:21:02;97462.06;;;9.70;100.00
6668;BME280;3370;47.712;9.082;2023-05-02T07:23:28;97464.94;;;9.86;100.00
6668;BME280;3370;47.712;9.082;2023-05-02T07:25:54;97469.16;;;9.88;100.00
6668;BME280;3370;47.712;9.082;2023-05-02T07:28:20;97468.97;;;9.93;100.00
6668;BME280;3370;47.712;9.082;2023-05-02T07:30:45;97470.66;;;9.94;100.00
6668;BME280;3370;47.712;9.082;2023-05-02T07:33:11;97466.97;;;10.01;100.00
6668;BME280;3370;47.712;9.082;2023-05-02T07:35:37;97464.47;;;10.00;100.00
6668;BME280;3370;47.712;9.082;2023-05-02T07:38:03;97467.31;;;10.15;100.00
6668;BME280;3370;47.712;9.082;2023-05-02T07:40:28;97465.97;;;10.29;100.00
6668;BME280;3370;47.712;9.082;2023-05-02T07:42:54;97462.88;;;10.44;100.00
6668;BME280;3370;47.712;9.082;2023-05-02T07:45:20;97469.63;;;10.47;100.00
6668;BME280;3370;47.712;9.082;2023-05-02T07:47:46;97466.63;;;10.58;100.00
6668;BME280;3370;47.712;9.082;2023-05-02T07:50:11;97460.56;;;10.59;100.00
6668;BME280;3370;47.712;9.082;2023-05-02T07:52:37;97466.16;;;10.70;100.00
6668;BME280;3370;47.712;9.082;2023-05-02T07:55:03;97466.47;;;10.84;100.00
6668;BME280;3370;47.712;9.082;2023-05-02T07:57:29;97471.47;;;10.87;100.00
6668;BME280;3370;47.712;9.082;2023-05-02T07:59:55;97472.97;;;10.71;100.00
6668;BME280;3370;47.712;9.082;2023-05-02T08:02:24;97477.41;;;10.67;100.00
6668;BME280;3370;47.712;9.082;2023-05-02T08:04:50;97479.91;;;10.47;100.00
6668;BME280;3370;47.712;9.082;2023-05-02T08:07:16;97483.59;;;10.40;100.00
6668;BME280;3370;47.712;9.082;2023-05-02T08:09:42;97483.97;;;10.52;100.00
6668;BME280;3370;47.712;9.082;2023-05-02T08:12:08;97478.41;;;10.63;100.00
6668;BME280;3370;47.712;9.082;2023-05-02T08:14:33;97486.59;;;10.73;100.00
6668;BME280;3370;47.712;9.082;2023-05-02T08:16:59;97485.19;;;10.88;100.00
6668;BME280;3370;47.712;9.082;2023-05-02T08:19:25;97486.97;;;11.08;100.00
6668;BME280;3370;47.712;9.082;2023-05-02T08:21:53;97486.25;;;11.04;97.21
6668;BME280;3370;47.712;9.082;2023-05-02T08:24:19;97485.84;;;11.15;99.61
6668;BME280;3370;47.712;9.082;2023-05-02T08:26:45;97486.81;;;11.33;100.00
6668;BME280;3370;47.712;9.082;2023-05-02T08:29:11;97488.63;;;11.51;100.00
6668;BME280;3370;47.712;9.082;2023-05-02T08:31:39;97493.00;;;11.49;98.24
6668;BME280;3370;47.712;9.082;2023-05-02T08:34:05;97494.16;;;11.42;99.48
6668;BME280;3370;47.712;9.082;2023-05-02T08:36:31;97496.91;;;11.38;96.21
6668;BME280;3370;47.712;9.082;2023-05-02T08:38:56;97498.53;;;10.98;96.72
6668;BME280;3370;47.712;9.082;2023-05-02T08:41:22;97502.69;;;11.22;100.00
6668;BME280;3370;47.712;9.082;2023-05-02T08:43:48;97503.66;;;10.98;94.98
6668;BME280;3370;47.712;9.082;2023-05-02T08:46:15;97501.94;;;10.76;98.11
6668;BME280;3370;47.712;9.082;2023-05-02T08:48:44;97501.66;;;11.06;96.87
6668;BME280;3370;47.712;9.082;2023-05-02T08:51:14;97509.88;;;11.14;96.13
6668;BME280;3370;47.712;9.082;2023-05-02T08:53:41;97507.97;;;11.19;92.72
6668;BME280;3370;47.712;9.082;2023-05-02T08:56:09;97510.66;;;11.16;95.98
6668;BME280;3370;47.712;9.082;2023-05-02T08:58:39;97512.78;;;11.27;96.07
6668;BME280;3370;47.712;9.082;2023-05-02T09:01:14;97511.72;;;11.32;98.49
6668;BME280;3370;47.712;9.082;2023-05-02T09:03:43;97513.03;;;11.43;96.81
6668;BME280;3370;47.712;9.082;2023-05-02T09:06:17;97513.41;;;11.54;97.30
6668;BME280;3370;47.712;9.082;2023-05-02T09:08:46;97516.19;;;11.70;92.14
6668;BME280;3370;47.712;9.082;2023-05-02T09:11:15;97519.13;;;11.81;90.80
6668;BME280;3370;47.712;9.082;2023-05-02T09:16:14;97520.34;;;11.52;89.41
6668;BME280;3370;47.712;9.082;2023-05-02T09:18:46;97520.56;;;11.88;90.85
6668;BME280;3370;47.712;9.082;2023-05-02T09:21:23;97520.34;;;11.73;91.11
6668;BME280;3370;47.712;9.082;2023-05-02T09:23:57;97516.44;;;11.84;89.66
6668;BME280;3370;47.712;9.082;2023-05-02T09:26:30;97521.16;;;11.95;87.63
6668;BME280;3370;47.712;9.082;2023-05-02T09:29:02;97519.47;;;11.94;90.09
6668;BME280;3370;47.712;9.082;2023-05-02T09:31:35;97516.00;;;11.95;86.33
6668;BME280;3370;47.712;9.082;2023-05-02T09:34:15;97520.75;;;12.04;89.44
6668;BME280;3370;47.712;9.082;2023-05-02T09:36:45;97522.19;;;12.12;88.22
6668;BME280;3370;47.712;9.082;2023-05-02T09:39:13;97524.59;;;12.73;95.28
6668;BME280;3370;47.712;9.082;2023-05-02T09:41:45;97523.31;;;12.82;87.20
6668;BME280;3370;47.712;9.082;2023-05-02T09:44:17;97524.78;;;12.88;87.84
6668;BME280;3370;47.712;9.082;2023-05-02T09:46:51;97525.75;;;12.28;88.69
6668;BME280;3370;47.712;9.082;2023-05-02T09:49:18;97522.13;;;12.70;88.10
6668;BME280;3370;47.712;9.082;2023-05-02T09:51:48;97527.50;;;12.84;90.10
6668;BME280;3370;47.712;9.082;2023-05-02T09:54:32;97519.94;;;12.99;90.90
6668;BME280;3370;47.712;9.082;2023-05-02T09:57:00;97523.59;;;12.95;88.14
6668;BME280;3370;47.712;9.082;2023-05-02T09:59:26;97529.97;;;13.05;86.46
6668;BME280;3370;47.712;9.082;2023-05-02T10:01:57;97530.25;;;12.99;85.09
6668;BME280;3370;47.712;9.082;2023-05-02T10:04:25;97531.22;;;13.15;91.37
6668;BME280;3370;47.712;9.082;2023-05-02T10:06:52;97529.38;;;13.36;87.19
6668;BME280;3370;47.712;9.082;2023-05-02T10:09:22;97520.22;;;13.29;83.26
6668;BME280;3370;47.712;9.082;2023-05-02T10:11:53;97519.81;;;13.19;88.53
6668;BME280;3370;47.712;9.082;2023-05-02T10:14:22;97513.66;;;13.41;86.02
6668;BME280;3370;47.712;9.082;2023-05-02T10:17:14;97521.94;;;13.48;83.98
6668;BME280;3370;47.712;9.082;2023-05-02T10:19:54;97515.03;;;13.31;82.15
6668;BME280;3370;47.712;9.082;2023-05-02T10:22:21;97513.97;;;13.16;84.83
6668;BME280;3370;47.712;9.082;2023-05-02T10:24:52;97514.66;;;13.19;83.97
6668;BME280;3370;47.712;9.082;2023-05-02T10:27:18;97524.13;;;13.55;88.74
6668;BME280;3370;47.712;9.082;2023-05-02T10:29:45;97512.44;;;13.66;86.27
6668;BME280;3370;47.712;9.082;2023-05-02T10:32:15;97510.97;;;13.95;85.12
6668;BME280;3370;47.712;9.082;2023-05-02T10:34:41;97517.91;;;13.94;83.16
6668;BME280;3370;47.712;9.082;2023-05-02T10:37:08;97515.09;;;14.15;83.96
6668;BME280;3370;47.712;9.082;2023-05-02T10:39:34;97505.56;;;14.49;83.29
6668;BME280;3370;47.712;9.082;2023-05-02T10:42:01;97509.78;;;14.83;77.70
6668;BME280;3370;47.712;9.082;2023-05-02T10:44:35;97515.00;;;15.13;81.92
6668;BME280;3370;47.712;9.082;2023-05-02T10:49:55;97506.41;;;14.97;74.73
6668;BME280;3370;47.712;9.082;2023-05-02T10:55:20;97511.03;;;14.60;74.60
6668;BME280;3370;47.712;9.082;2023-05-02T11:00:33;97506.69;;;14.76;77.81
6668;BME280;3370;47.712;9.082;2023-05-02T11:03:00;97507.66;;;15.22;74.95
6668;BME280;3370;47.712;9.082;2023-05-02T11:05:27;97492.19;;;15.50;71.97
6668;BME280;3370;47.712;9.082;2023-05-02T11:10:45;97499.06;;;15.21;73.09
6668;BME280;3370;47.712;9.082;2023-05-02T11:13:11;97489.63;;;15.65;73.89
6668;BME280;3370;47.712;9.082;2023-05-02T11:18:09;97487.19;;;15.92;72.06
6668;BME280;3370;47.712;9.082;2023-05-02T11:20:42;97479.03;;;16.27;67.37
6668;BME280;3370;47.712;9.082;2023-05-02T11:25:57;97489.50;;;15.82;68.37
6668;BME280;3370;47.712;9.082;2023-05-02T11:28:40;97492.78;;;15.56;67.46
6668;BME280;3370;47.712;9.082;2023-05-02T11:33:59;97490.66;;;15.32;68.78
6668;BME280;3370;47.712;9.082;2023-05-02T11:36:33;97499.22;;;15.02;69.21
6668;BME280;3370;47.712;9.082;2023-05-02T11:39:01;97488.47;;;14.94;70.11
6668;BME280;3370;47.712;9.082;2023-05-02T11:41:41;97497.44;;;14.88;70.35
6668;BME280;3370;47.712;9.082;2023-05-02T11:44:07;97491.75;;;14.82;74.47
6668;BME280;3370;47.712;9.082;2023-05-02T11:46:36;97496.56;;;14.56;72.27
6668;BME280;3370;47.712;9.082;2023-05-02T11:49:02;97501.03;;;14.36;72.91
6668;BME280;3370;47.712;9.082;2023-05-02T11:51:28;97502.31;;;14.12;75.66
6668;BME280;3370;47.712;9.082;2023-05-02T11:53:56;97514.88;;;13.69;77.89
6668;BME280;3370;47.712;9.082;2023-05-02T11:56:25;97504.25;;;13.40;79.73
6668;BME280;3370;47.712;9.082;2023-05-02T11:59:02;97508.66;;;13.38;80.57
6668;BME280;3370;47.712;9.082;2023-05-02T12:01:28;97511.06;;;13.58;81.33
6668;BME280;3370;47.712;9.082;2023-05-02T12:04:05;97506.34;;;13.67;82.01
6668;BME280;3370;47.712;9.082;2023-05-02T12:06:33;97522.94;;;13.80;83.21
6668;BME280;3370;47.712;9.082;2023-05-02T12:09:25;97523.28;;;13.90;87.23
6668;BME280;3370;47.712;9.082;2023-05-02T12:11:52;97516.09;;;13.61;86.62
6668;BME280;3370;47.712;9.082;2023-05-02T12:14:27;97523.09;;;12.87;90.74
6668;BME280;3370;47.712;9.082;2023-05-02T12:16:54;97511.25;;;12.82;93.78
6668;BME280;3370;47.712;9.082;2023-05-02T12:19:20;97520.81;;;12.80;93.55
6668;BME280;3370;47.712;9.082;2023-05-02T12:21:46;97523.81;;;12.71;94.18
6668;BME280;3370;47.712;9.082;2023-05-02T12:24:14;97521.66;;;12.62;92.48
6668;BME280;3370;47.712;9.082;2023-05-02T12:26:40;97523.06;;;12.69;95.01
6668;BME280;3370;47.712;9.082;2023-05-02T12:29:06;97514.09;;;12.95;98.08
6668;BME280;3370;47.712;9.082;2023-05-02T12:31:33;97518.69;;;13.25;97.24
6668;BME280;3370;47.712;9.082;2023-05-02T12:33:59;97521.13;;;13.28;91.38
6668;BME280;3370;47.712;9.082;2023-05-02T12:36:29;97510.91;;;13.44;88.04
6668;BME280;3370;47.712;9.082;2023-05-02T12:38:57;97512.16;;;13.54;87.51
6668;BME280;3370;47.712;9.082;2023-05-02T12:41:32;97516.00;;;13.63;85.70
6668;BME280;3370;47.712;9.082;2023-05-02T12:43:58;97523.38;;;13.71;86.77
6668;BME280;3370;47.712;9.082;2023-05-02T12:46:25;97522.66;;;14.02;91.27
6668;BME280;3370;47.712;9.082;2023-05-02T12:49:09;97521.81;;;14.35;83.56
6668;BME280;3370;47.712;9.082;2023-05-02T12:51:38;97516.22;;;14.43;78.92
6668;BME280;3370;47.712;9.082;2023-05-02T12:54:04;97508.84;;;14.68;77.65
6668;BME280;3370;47.712;9.082;2023-05-02T12:56:41;97498.06;;;15.68;71.08
6668;BME280;3370;47.712;9.082;2023-05-02T12:59:08;97494.34;;;16.32;72.91
6668;BME280;3370;47.712;9.082;2023-05-02T13:01:35;97489.50;;;16.40;65.93
6668;BME280;3370;47.712;9.082;2023-05-02T13:04:01;97496.94;;;16.32;73.21
6668;BME280;3370;47.712;9.082;2023-05-02T13:06:26;97488.41;;;16.71;70.26
6668;BME280;3370;47.712;9.082;2023-05-02T13:08:52;97485.34;;;16.37;67.17
6668;BME280;3370;47.712;9.082;2023-05-02T13:11:18;97490.94;;;17.27;68.89
6668;BME280;3370;47.712;9.082;2023-05-02T13:13:45;97494.16;;;17.71;67.37
6668;BME280;3370;47.712;9.082;2023-05-02T13:16:10;97490.81;;;17.81;66.61
6668;BME280;3370;47.712;9.082;2023-05-02T13:18:36;97491.72;;;17.95;64.59
6668;BME280;3370;47.712;9.082;2023-05-02T13:21:02;97489.59;;;18.00;64.68
6668;BME280;3370;47.712;9.082;2023-05-02T13:23:28;97485.34;;;18.12;62.98
6668;BME280;3370;47.712;9.082;2023-05-02T13:25:54;97482.88;;;18.47;65.02
6668;BME280;3370;47.712;9.082;2023-05-02T13:28:20;97481.25;;;17.82;63.40
6668;BME280;3370;47.712;9.082;2023-05-02T13:30:45;97481.94;;;17.58;62.52
6668;BME280;3370;47.712;9.082;2023-05-02T13:33:11;97476.91;;;18.21;64.19
6668;BME280;3370;47.712;9.082;2023-05-02T13:35:37;97481.78;;;18.00;63.23
6668;BME280;3370;47.712;9.082;2023-05-02T13:38:03;97481.53;;;16.99;65.49
6668;BME280;3370;47.712;9.082;2023-05-02T13:40:28;97478.78;;;17.00;65.74
6668;BME280;3370;47.712;9.082;2023-05-02T13:42:54;97482.94;;;17.17;64.43
6668;BME280;3370;47.712;9.082;2023-05-02T13:45:20;97483.13;;;17.67;63.00
6668;BME280;3370;47.712;9.082;2023-05-02T13:47:46;97473.59;;;18.06;63.80
6668;BME280;3370;47.712;9.082;2023-05-02T13:50:12;97470.94;;;18.32;59.51
6668;BME280;3370;47.712;9.082;2023-05-02T13:52:37;97471.44;;;17.60;60.74
6668;BME280;3370;47.712;9.082;2023-05-02T13:55:04;97469.00;;;17.97;60.98
6668;BME280;3370;47.712;9.082;2023-05-02T13:57:30;97468.66;;;18.40;60.00
6668;BME280;3370;47.712;9.082;2023-05-02T13:59:56;97454.47;;;18.81;59.87
6668;BME280;3370;47.712;9.082;2023-05-02T14:02:22;97461.44;;;19.05;57.95
6668;BME280;3370;47.712;9.082;2023-05-02T14:04:48;97453.75;;;19.39;58.71
6668;BME280;3370;47.712;9.082;2023-05-02T14:07:14;97447.88;;;19.70;59.40
6668;BME280;3370;47.712;9.082;2023-05-02T14:09:40;97448.59;;;19.61;56.41
6668;BME280;3370;47.712;9.082;2023-05-02T14:12:05;97448.56;;;19.39;53.90
6668;BME280;3370;47.712;9.082;2023-05-02T14:14:31;97449.25;;;19.76;54.86
6668;BME280;3370;47.712;9.082;2023-05-02T14:16:57;97451.09;;;19.63;53.46